Time,TemperatureF,DewpointF,PressureIn,WindDirection,WindDirectionDegrees,WindSpeedMPH,WindSpeedGustMPH,Humidity,HourlyPrecipIn,Conditions,Clouds,dailyrainin,SoftwareType,DateUTC
2013-01-30 00:03:00,32.2,30.2,29.44,NE,45,4.0,6.3,92,0.00,,,0.00,WUHU216HW,2013-01-30 06:03:00,
2013-01-30 00:08:00,32.0,30.2,29.45,WSW,248,3.8,6.3,93,0.00,,,0.00,WUHU216HW,2013-01-30 06:08:00,
2013-01-30 00:13:00,32.0,30.2,29.43,SSW,203,2.7,5.4,93,0.00,,,0.00,WUHU216HW,2013-01-30 06:13:00,
2013-01-30 00:18:00,32.0,30.2,29.42,SSE,158,2.5,4.7,93,0.00,,,0.00,WUHU216HW,2013-01-30 06:18:00,
2013-01-30 00:23:00,32.0,30.2,29.40,SSE,158,4.5,4.7,93,0.00,,,0.00,WUHU216HW,2013-01-30 06:23:00,
2013-01-30 00:28:00,32.0,30.2,29.40,SSE,158,2.5,4.5,93,0.00,,,0.00,WUHU216HW,2013-01-30 06:28:00,
2013-01-30 00:33:00,32.0,30.2,29.38,SSE,158,3.6,5.1,93,0.00,,,0.00,WUHU216HW,2013-01-30 06:33:00,
2013-01-30 00:38:00,32.0,30.2,29.38,SSE,158,2.0,5.1,93,0.00,,,0.00,WUHU216HW,2013-01-30 06:38:00,
2013-01-30 00:43:00,32.0,30.2,29.39,SSE,158,2.9,3.4,93,0.00,,,0.00,WUHU216HW,2013-01-30 06:43:00,
2013-01-30 00:48:00,31.9,30.1,29.37,SSE,158,3.6,4.5,93,0.00,,,0.00,WUHU216HW,2013-01-30 06:48:00,
2013-01-30 00:53:00,31.9,30.1,29.37,SSE,158,0.7,4.5,93,0.00,,,0.00,WUHU216HW,2013-01-30 06:53:00,
2013-01-30 00:58:00,31.9,30.1,29.39,SSE,158,2.2,4.0,93,0.00,,,0.00,WUHU216HW,2013-01-30 06:58:00,
2013-01-30 01:03:00,32.0,30.2,29.39,SSE,158,1.8,4.0,93,0.00,,,0.00,WUHU216HW,2013-01-30 07:03:00,
2013-01-30 01:08:00,32.0,30.2,29.39,SSE,158,2.5,3.8,93,0.00,,,0.00,WUHU216HW,2013-01-30 07:08:00,
2013-01-30 01:13:00,32.0,30.2,29.39,SSE,158,2.5,3.4,93,0.00,,,0.00,WUHU216HW,2013-01-30 07:13:00,
2013-01-30 01:18:00,32.0,30.2,29.39,SSE,158,3.1,4.7,93,0.00,,,0.00,WUHU216HW,2013-01-30 07:18:00,
2013-01-30 01:23:00,32.0,30.1,29.38,SSE,158,1.8,4.7,92,0.00,,,0.00,WUHU216HW,2013-01-30 07:23:00,
2013-01-30 01:28:00,32.0,30.1,29.37,SSE,158,2.5,4.9,92,0.00,,,0.00,WUHU216HW,2013-01-30 07:28:00,
2013-01-30 01:33:00,32.2,30.2,29.37,SSE,158,2.2,4.9,92,0.00,,,0.00,WUHU216HW,2013-01-30 07:33:00,
2013-01-30 01:38:00,32.2,30.2,29.37,SSE,158,2.0,3.1,92,0.00,,,0.00,WUHU216HW,2013-01-30 07:38:00,
2013-01-30 01:43:00,32.2,30.2,29.37,SSE,158,4.7,4.7,92,0.00,,,0.00,WUHU216HW,2013-01-30 07:43:00,
2013-01-30 01:48:00,32.2,30.2,29.37,SSE,158,2.7,6.5,92,0.00,,,0.00,WUHU216HW,2013-01-30 07:48:00,
2013-01-30 01:53:00,32.2,30.2,29.37,SSE,158,2.9,6.5,92,0.00,,,0.00,WUHU216HW,2013-01-30 07:53:00,
2013-01-30 01:58:00,32.2,30.2,29.36,SSE,158,3.4,6.3,92,0.00,,,0.00,WUHU216HW,2013-01-30 07:58:00,
2013-01-30 02:03:00,32.2,30.2,29.36,SSE,158,1.8,5.6,92,0.00,,,0.00,WUHU216HW,2013-01-30 08:03:00,
2013-01-30 02:08:00,32.0,30.1,29.36,SSE,158,4.7,5.4,92,0.00,,,0.00,WUHU216HW,2013-01-30 08:08:00,
2013-01-30 02:13:00,32.0,30.1,29.37,SSE,158,2.9,5.4,92,0.00,,,0.00,WUHU216HW,2013-01-30 08:13:00,
2013-01-30 02:18:00,32.0,30.1,29.37,SSE,158,4.0,4.7,92,0.00,,,0.00,WUHU216HW,2013-01-30 08:18:00,
2013-01-30 02:23:00,32.0,30.1,29.37,SSE,158,3.4,5.6,92,0.00,,,0.00,WUHU216HW,2013-01-30 08:23:00,
2013-01-30 02:28:00,32.0,29.8,29.37,SSE,158,3.4,5.6,91,0.00,,,0.00,WUHU216HW,2013-01-30 08:28:00,
2013-01-30 02:33:00,32.0,29.8,29.37,SSE,158,4.7,6.3,91,0.00,,,0.00,WUHU216HW,2013-01-30 08:33:00,
2013-01-30 02:38:00,31.9,29.6,29.37,SSE,158,1.8,6.3,91,0.00,,,0.00,WUHU216HW,2013-01-30 08:38:00,
2013-01-30 02:43:00,31.9,29.6,29.37,SSE,158,3.1,6.3,91,0.00,,,0.00,WUHU216HW,2013-01-30 08:43:00,
2013-01-30 02:48:00,31.9,29.6,29.38,SSE,158,4.5,6.3,91,0.00,,,0.00,WUHU216HW,2013-01-30 08:48:00,
2013-01-30 02:53:00,31.7,29.4,29.37,SSE,158,5.1,6.3,91,0.00,,,0.00,WUHU216HW,2013-01-30 08:53:00,
2013-01-30 02:58:00,31.7,29.4,29.37,SSE,158,3.4,6.3,91,0.00,,,0.00,WUHU216HW,2013-01-30 08:58:00,
2013-01-30 03:03:00,31.7,29.4,29.37,SSE,158,1.8,5.1,91,0.00,,,0.00,WUHU216HW,2013-01-30 09:03:00,
2013-01-30 03:08:00,31.5,29.3,29.37,SSE,158,2.7,4.3,91,0.00,,,0.00,WUHU216HW,2013-01-30 09:08:00,
2013-01-30 03:14:00,31.5,29.3,29.37,SSE,158,2.2,4.0,91,0.00,,,0.00,WUHU216HW,2013-01-30 09:14:00,
2013-01-30 03:19:00,31.3,29.1,29.36,SSE,158,5.1,6.7,91,0.00,,,0.00,WUHU216HW,2013-01-30 09:19:00,
2013-01-30 03:24:00,31.3,29.1,29.36,SSE,158,4.3,6.7,91,0.00,,,0.00,WUHU216HW,2013-01-30 09:24:00,
2013-01-30 03:29:00,31.1,28.9,29.36,SSE,158,3.6,6.9,91,0.00,,,0.00,WUHU216HW,2013-01-30 09:29:00,
2013-01-30 03:34:00,31.1,28.9,29.37,SSE,158,5.8,6.9,91,0.00,,,0.00,WUHU216HW,2013-01-30 09:34:00,
2013-01-30 03:39:00,31.0,28.7,29.37,SSE,158,2.5,6.0,91,0.00,,,0.00,WUHU216HW,2013-01-30 09:39:00,
2013-01-30 03:44:00,31.0,28.7,29.37,SSE,158,4.0,6.0,91,0.00,,,0.00,WUHU216HW,2013-01-30 09:44:00,
2013-01-30 03:49:00,30.8,28.8,29.37,SSE,158,2.5,4.7,92,0.00,,,0.00,WUHU216HW,2013-01-30 09:49:00,
2013-01-30 03:54:00,30.8,28.8,29.37,SSE,158,2.5,4.7,92,0.00,,,0.00,WUHU216HW,2013-01-30 09:54:00,
2013-01-30 03:59:00,30.6,28.6,29.37,SSE,158,2.2,3.4,92,0.00,,,0.00,WUHU216HW,2013-01-30 09:59:00,
2013-01-30 04:04:00,30.6,28.6,29.36,SSE,158,2.5,5.1,92,0.00,,,0.00,WUHU216HW,2013-01-30 10:04:00,
2013-01-30 04:09:00,30.6,28.6,29.37,SSE,158,3.6,5.1,92,0.00,,,0.00,WUHU216HW,2013-01-30 10:09:00,
2013-01-30 04:14:00,30.4,28.6,29.37,SSE,158,2.5,5.1,93,0.00,,,0.00,WUHU216HW,2013-01-30 10:14:00,
2013-01-30 04:19:00,30.4,28.6,29.36,SSE,158,7.2,7.2,93,0.00,,,0.00,WUHU216HW,2013-01-30 10:19:00,
2013-01-30 04:24:00,30.2,28.4,29.36,SSE,158,3.8,7.8,93,0.00,,,0.00,WUHU216HW,2013-01-30 10:24:00,
2013-01-30 04:29:00,30.1,28.3,29.36,SSE,158,4.7,7.8,93,0.00,,,0.00,WUHU216HW,2013-01-30 10:29:00,
2013-01-30 04:34:00,29.9,28.1,29.36,SSE,158,4.0,8.5,93,0.00,,,0.00,WUHU216HW,2013-01-30 10:34:00,
2013-01-30 04:39:00,29.9,28.1,29.36,SSE,158,4.5,8.5,93,0.00,,,0.00,WUHU216HW,2013-01-30 10:39:00,
2013-01-30 04:44:00,29.7,27.9,29.35,SSE,158,6.9,6.9,93,0.00,,,0.00,WUHU216HW,2013-01-30 10:44:00,
2013-01-30 04:49:00,29.3,27.5,29.34,SSE,158,5.4,8.5,93,0.00,,,0.00,WUHU216HW,2013-01-30 10:49:00,
2013-01-30 04:54:00,29.2,27.4,29.35,SSE,158,4.7,9.2,93,0.00,,,0.00,WUHU216HW,2013-01-30 10:54:00,
2013-01-30 04:59:00,29.0,27.2,29.34,SSE,158,4.0,9.2,93,0.00,,,0.00,WUHU216HW,2013-01-30 10:59:00,
2013-01-30 05:04:00,28.8,27.0,29.34,SSE,158,4.7,8.5,93,0.00,,,0.00,WUHU216HW,2013-01-30 11:04:00,
2013-01-30 05:09:00,28.6,26.8,29.33,SSE,158,5.4,8.5,93,0.00,,,0.00,WUHU216HW,2013-01-30 11:09:00,
2013-01-30 05:14:00,28.4,26.6,29.32,SSE,158,8.9,10.5,93,0.00,,,0.00,WUHU216HW,2013-01-30 11:14:00,
2013-01-30 05:19:00,28.1,26.3,29.32,SSE,158,3.4,10.5,93,0.00,,,0.00,WUHU216HW,2013-01-30 11:19:00,
2013-01-30 05:24:00,27.9,26.1,29.32,SSE,158,4.9,8.9,93,0.00,,,0.00,WUHU216HW,2013-01-30 11:24:00,
2013-01-30 05:29:00,27.7,25.9,29.31,SSE,158,9.2,9.2,93,0.00,,,0.00,WUHU216HW,2013-01-30 11:29:00,
2013-01-30 05:34:00,27.7,25.9,29.31,SSE,158,6.5,10.7,93,0.00,,,0.00,WUHU216HW,2013-01-30 11:34:00,
2013-01-30 05:39:00,27.5,25.7,29.32,SSE,158,7.4,10.7,93,0.00,,,0.00,WUHU216HW,2013-01-30 11:39:00,
2013-01-30 05:44:00,27.5,25.7,29.31,SSE,158,5.8,8.5,93,0.00,,,0.00,WUHU216HW,2013-01-30 11:44:00,
2013-01-30 05:49:00,27.4,25.6,29.33,SSE,158,3.6,8.5,93,0.00,,,0.00,WUHU216HW,2013-01-30 11:49:00,
2013-01-30 05:54:00,27.4,25.6,29.32,SSE,158,6.3,7.2,93,0.00,,,0.00,WUHU216HW,2013-01-30 11:54:00,
2013-01-30 05:59:00,27.4,25.6,29.31,SSE,158,3.6,7.6,93,0.00,,,0.00,WUHU216HW,2013-01-30 11:59:00,
2013-01-30 06:04:00,27.4,25.6,29.32,SSE,158,11.4,11.4,93,0.00,,,0.00,WUHU216HW,2013-01-30 12:04:00,
2013-01-30 06:09:00,27.2,25.4,29.32,SSE,158,3.6,11.4,93,0.00,,,0.00,WUHU216HW,2013-01-30 12:09:00,
2013-01-30 06:14:00,27.2,25.4,29.31,SSE,158,4.0,11.4,93,0.00,,,0.00,WUHU216HW,2013-01-30 12:14:00,
2013-01-30 06:19:00,27.2,25.4,29.31,SSE,158,4.5,9.8,93,0.00,,,0.00,WUHU216HW,2013-01-30 12:19:00,
2013-01-30 06:24:00,27.0,25.2,29.32,SSE,158,7.6,9.8,93,0.00,,,0.00,WUHU216HW,2013-01-30 12:24:00,
2013-01-30 06:29:00,27.0,25.2,29.31,SSE,158,7.4,9.4,93,0.00,,,0.00,WUHU216HW,2013-01-30 12:29:00,
2013-01-30 06:34:00,27.0,25.2,29.32,SSE,158,10.3,10.3,93,0.00,,,0.00,WUHU216HW,2013-01-30 12:34:00,
2013-01-30 06:39:00,27.0,25.2,29.31,SSE,158,3.8,10.3,93,0.00,,,0.00,WUHU216HW,2013-01-30 12:39:00,
2013-01-30 06:44:00,27.0,25.0,29.31,SSE,158,6.0,8.5,92,0.00,,,0.00,WUHU216HW,2013-01-30 12:44:00,
2013-01-30 06:49:00,27.0,24.8,29.32,SSE,158,5.4,8.9,91,0.00,,,0.00,WUHU216HW,2013-01-30 12:49:00,
2013-01-30 06:54:00,27.0,25.0,29.31,SSE,158,4.3,8.9,92,0.00,,,0.00,WUHU216HW,2013-01-30 12:54:00,
2013-01-30 06:59:00,27.0,25.0,29.32,SSE,158,7.6,7.6,92,0.00,,,0.00,WUHU216HW,2013-01-30 12:59:00,
2013-01-30 07:04:00,26.8,24.9,29.32,SSE,158,7.4,7.6,92,0.00,,,0.00,WUHU216HW,2013-01-30 13:04:00,
2013-01-30 07:09:00,26.8,24.9,29.32,SSE,158,5.4,7.4,92,0.00,,,0.00,WUHU216HW,2013-01-30 13:09:00,
2013-01-30 07:14:00,26.8,24.9,29.32,SSE,158,6.3,7.6,92,0.00,,,0.00,WUHU216HW,2013-01-30 13:14:00,
2013-01-30 07:19:00,26.6,24.7,29.31,SSE,158,5.8,9.6,92,0.00,,,0.00,WUHU216HW,2013-01-30 13:19:00,
2013-01-30 07:24:00,26.6,24.7,29.32,SSE,158,2.2,9.6,92,0.00,,,0.00,WUHU216HW,2013-01-30 13:24:00,
2013-01-30 07:29:00,26.6,24.7,29.32,SSE,158,5.1,7.4,92,0.00,,,0.00,WUHU216HW,2013-01-30 13:29:00,
2013-01-30 07:34:00,26.6,24.7,29.31,SSE,158,5.8,8.5,92,0.00,,,0.00,WUHU216HW,2013-01-30 13:34:00,
2013-01-30 07:39:00,26.6,24.7,29.31,SSE,158,10.1,10.1,92,0.00,,,0.00,WUHU216HW,2013-01-30 13:39:00,
2013-01-30 07:44:00,26.5,24.5,29.31,SSE,158,2.9,10.1,92,0.00,,,0.00,WUHU216HW,2013-01-30 13:44:00,
2013-01-30 07:49:00,26.5,24.5,29.31,SSE,158,3.4,10.1,92,0.00,,,0.00,WUHU216HW,2013-01-30 13:49:00,
2013-01-30 07:54:00,26.5,24.5,29.32,SSE,158,2.0,6.9,92,0.00,,,0.00,WUHU216HW,2013-01-30 13:54:00,
2013-01-30 07:59:00,26.6,24.7,29.33,SSE,158,6.0,6.7,92,0.00,,,0.00,WUHU216HW,2013-01-30 13:59:00,
2013-01-30 08:04:00,26.6,24.7,29.33,SSE,158,3.4,6.7,92,0.00,,,0.00,WUHU216HW,2013-01-30 14:04:00,
2013-01-30 08:09:00,26.5,24.5,29.32,SSE,158,6.5,7.2,92,0.00,,,0.00,WUHU216HW,2013-01-30 14:09:00,
2013-01-30 08:14:00,26.5,24.5,29.32,SSE,158,3.8,7.2,92,0.00,,,0.00,WUHU216HW,2013-01-30 14:14:00,
2013-01-30 08:19:00,26.6,24.7,29.32,SSE,158,6.3,8.3,92,0.00,,,0.00,WUHU216HW,2013-01-30 14:19:00,
2013-01-30 08:24:00,26.6,24.7,29.32,SSE,158,2.9,8.3,92,0.00,,,0.00,WUHU216HW,2013-01-30 14:24:00,
2013-01-30 08:29:00,26.6,24.7,29.33,SSE,158,5.4,7.6,92,0.00,,,0.00,WUHU216HW,2013-01-30 14:29:00,
2013-01-30 08:34:00,26.6,24.7,29.32,SSE,158,5.4,6.5,92,0.00,,,0.00,WUHU216HW,2013-01-30 14:34:00,
2013-01-30 08:39:00,26.6,24.7,29.32,SSE,158,5.4,6.5,92,0.00,,,0.00,WUHU216HW,2013-01-30 14:39:00,
2013-01-30 08:44:00,26.6,24.7,29.31,SSE,158,2.9,6.3,92,0.00,,,0.00,WUHU216HW,2013-01-30 14:44:00,
2013-01-30 08:49:00,26.6,24.7,29.32,SSE,158,6.3,6.7,92,0.00,,,0.00,WUHU216HW,2013-01-30 14:49:00,
2013-01-30 08:54:00,26.6,24.7,29.30,SSE,158,4.5,6.7,92,0.00,,,0.00,WUHU216HW,2013-01-30 14:54:00,
2013-01-30 08:59:00,26.6,24.7,29.30,SSE,158,5.4,6.5,92,0.00,,,0.00,WUHU216HW,2013-01-30 14:59:00,
2013-01-30 09:04:00,26.6,24.7,29.29,SSE,158,3.4,8.3,92,0.00,,,0.00,WUHU216HW,2013-01-30 15:04:00,
2013-01-30 09:09:00,26.5,24.5,29.30,SSE,158,3.4,8.3,92,0.00,,,0.00,WUHU216HW,2013-01-30 15:09:00,
2013-01-30 09:14:00,26.5,24.5,29.30,SSE,158,8.5,8.5,92,0.00,,,0.00,WUHU216HW,2013-01-30 15:14:00,
2013-01-30 09:19:00,26.5,24.5,29.30,SSE,158,5.4,8.5,92,0.00,,,0.00,WUHU216HW,2013-01-30 15:19:00,
2013-01-30 09:24:00,26.3,24.3,29.30,SSE,158,8.5,12.3,92,0.00,,,0.00,WUHU216HW,2013-01-30 15:24:00,
2013-01-30 09:29:00,26.3,24.3,29.31,SSE,158,5.4,12.3,92,0.00,,,0.00,WUHU216HW,2013-01-30 15:29:00,
2013-01-30 09:34:00,26.3,24.3,29.32,SSE,158,2.9,8.9,92,0.00,,,0.00,WUHU216HW,2013-01-30 15:34:00,
2013-01-30 09:39:00,26.3,24.3,29.34,SSE,158,5.4,6.0,92,0.00,,,0.00,WUHU216HW,2013-01-30 15:39:00,
2013-01-30 09:44:00,26.3,24.3,29.34,SSE,158,3.8,8.5,92,0.00,,,0.00,WUHU216HW,2013-01-30 15:44:00,
2013-01-30 09:49:00,26.3,24.3,29.33,SSE,158,6.0,8.5,92,0.00,,,0.00,WUHU216HW,2013-01-30 15:49:00,
2013-01-30 09:54:00,26.3,24.3,29.33,SSE,158,5.1,6.9,92,0.00,,,0.00,WUHU216HW,2013-01-30 15:54:00,
2013-01-30 09:59:00,26.1,24.1,29.33,SSE,158,4.3,7.2,92,0.00,,,0.00,WUHU216HW,2013-01-30 15:59:00,
2013-01-30 10:04:00,26.3,24.3,29.32,SSE,158,4.7,7.2,92,0.00,,,0.00,WUHU216HW,2013-01-30 16:04:00,
2013-01-30 10:09:00,26.5,24.5,29.32,SSE,158,2.0,6.0,92,0.00,,,0.00,WUHU216HW,2013-01-30 16:09:00,
2013-01-30 10:14:00,26.5,24.5,29.32,SSE,158,6.7,8.5,92,0.00,,,0.00,WUHU216HW,2013-01-30 16:14:00,
2013-01-30 10:19:00,26.5,24.5,29.31,SSE,158,5.8,8.5,92,0.00,,,0.00,WUHU216HW,2013-01-30 16:19:00,
2013-01-30 10:24:00,26.3,24.0,29.31,SSE,158,10.1,11.6,91,0.00,,,0.00,WUHU216HW,2013-01-30 16:24:00,
2013-01-30 10:29:00,26.1,23.9,29.32,SSE,158,6.3,11.6,91,0.00,,,0.00,WUHU216HW,2013-01-30 16:29:00,
2013-01-30 10:34:00,26.1,24.1,29.32,SSE,158,3.6,10.5,92,0.00,,,0.00,WUHU216HW,2013-01-30 16:34:00,
2013-01-30 10:39:00,26.1,24.1,29.31,SSE,158,4.9,11.6,92,0.00,,,0.00,WUHU216HW,2013-01-30 16:39:00,
2013-01-30 10:44:00,26.1,24.1,29.31,SSE,158,3.4,11.6,92,0.00,,,0.00,WUHU216HW,2013-01-30 16:44:00,
2013-01-30 10:49:00,26.5,24.5,29.31,SSE,158,6.3,9.8,92,0.00,,,0.00,WUHU216HW,2013-01-30 16:49:00,
2013-01-30 10:54:00,26.8,24.9,29.31,SSE,158,8.1,8.9,92,0.00,,,0.00,WUHU216HW,2013-01-30 16:54:00,
2013-01-30 10:59:00,27.0,24.8,29.31,SSE,158,8.5,11.0,91,0.00,,,0.00,WUHU216HW,2013-01-30 16:59:00,
2013-01-30 11:04:00,27.2,24.9,29.31,SSE,158,9.8,13.4,91,0.00,,,0.00,WUHU216HW,2013-01-30 17:04:00,
2013-01-30 11:09:00,27.7,25.5,29.30,SSE,158,6.7,13.4,91,0.00,,,0.00,WUHU216HW,2013-01-30 17:09:00,
2013-01-30 11:14:00,27.7,25.2,29.30,SSE,158,6.9,10.5,90,0.00,,,0.00,WUHU216HW,2013-01-30 17:14:00,
2013-01-30 11:20:00,27.7,25.2,29.30,SSE,158,4.5,13.4,90,0.00,,,0.00,WUHU216HW,2013-01-30 17:20:00,
2013-01-30 11:25:00,27.7,25.2,29.30,SSE,158,5.8,13.4,90,0.00,,,0.00,WUHU216HW,2013-01-30 17:25:00,
2013-01-30 11:30:00,27.7,25.2,29.30,SSE,158,8.9,9.8,90,0.00,,,0.00,WUHU216HW,2013-01-30 17:30:00,
2013-01-30 11:35:00,27.7,24.9,29.30,SSE,158,11.4,11.9,89,0.00,,,0.00,WUHU216HW,2013-01-30 17:35:00,
2013-01-30 11:39:00,27.4,24.3,29.30,SSE,158,8.9,14.3,88,0.00,,,0.00,WUHU216HW,2013-01-30 17:39:00,
2013-01-30 11:44:00,27.2,24.1,29.30,SSE,158,8.9,14.3,88,0.00,,,0.00,WUHU216HW,2013-01-30 17:44:00,
2013-01-30 11:50:00,27.0,24.2,29.30,SSE,158,7.6,11.4,89,0.00,,,0.00,WUHU216HW,2013-01-30 17:50:00,
2013-01-30 11:55:00,27.0,24.0,29.30,SSE,158,10.7,13.4,88,0.00,,,0.00,WUHU216HW,2013-01-30 17:55:00,
2013-01-30 12:00:00,26.8,23.8,29.29,SSE,158,12.8,13.4,88,0.00,,,0.00,WUHU216HW,2013-01-30 18:00:00,
2013-01-30 12:05:00,26.6,23.6,29.29,SSE,158,11.6,12.8,88,0.00,,,0.00,WUHU216HW,2013-01-30 18:05:00,
2013-01-30 12:10:00,26.3,23.2,29.29,SSE,158,14.3,14.3,88,0.00,,,0.00,WUHU216HW,2013-01-30 18:10:00,
2013-01-30 12:15:00,26.1,23.1,29.29,SSE,158,9.6,14.3,88,0.00,,,0.00,WUHU216HW,2013-01-30 18:15:00,
2013-01-30 12:20:00,25.7,22.7,29.29,SSE,158,10.5,13.4,88,0.00,,,0.00,WUHU216HW,2013-01-30 18:20:00,
2013-01-30 12:25:00,25.6,22.5,29.29,SSE,158,8.5,13.4,88,0.00,,,0.00,WUHU216HW,2013-01-30 18:25:00,
2013-01-30 12:30:00,25.7,23.0,29.29,SSE,158,7.6,12.8,89,0.00,,,0.00,WUHU216HW,2013-01-30 18:30:00,
2013-01-30 12:35:00,25.9,23.1,29.29,SSE,158,9.4,11.4,89,0.00,,,0.00,WUHU216HW,2013-01-30 18:35:00,
2013-01-30 12:40:00,25.7,23.0,29.29,SSE,158,9.8,17.0,89,0.00,,,0.00,WUHU216HW,2013-01-30 18:40:00,
2013-01-30 12:45:00,25.6,23.3,29.29,SSE,158,9.6,17.0,91,0.00,,,0.00,WUHU216HW,2013-01-30 18:45:00,
2013-01-30 12:50:00,25.9,23.7,29.29,SSE,158,8.9,13.0,91,0.00,,,0.00,WUHU216HW,2013-01-30 18:50:00,
2013-01-30 12:55:00,26.1,23.6,29.29,SSE,158,8.9,13.0,90,0.00,,,0.00,WUHU216HW,2013-01-30 18:55:00,
2013-01-30 13:00:00,25.9,23.1,29.28,SSE,158,6.7,11.0,89,0.00,,,0.00,WUHU216HW,2013-01-30 19:00:00,
2013-01-30 13:04:00,25.9,23.1,29.28,SSE,158,8.7,12.1,89,0.00,,,0.00,WUHU216HW,2013-01-30 19:04:00,
2013-01-30 13:10:00,25.6,22.8,29.28,SSE,158,10.5,13.2,89,0.00,,,0.00,WUHU216HW,2013-01-30 19:10:00,
2013-01-30 13:15:00,25.4,22.6,29.28,SSE,158,8.1,13.2,89,0.00,,,0.00,WUHU216HW,2013-01-30 19:15:00,
2013-01-30 13:20:00,25.4,22.6,29.28,SSE,158,9.2,12.3,89,0.00,,,0.00,WUHU216HW,2013-01-30 19:20:00,
2013-01-30 13:25:00,25.6,22.8,29.28,SSE,158,12.1,12.3,89,0.00,,,0.00,WUHU216HW,2013-01-30 19:25:00,
2013-01-30 13:30:00,25.6,22.5,29.28,SSE,158,8.7,17.9,88,0.00,,,0.00,WUHU216HW,2013-01-30 19:30:00,
2013-01-30 13:35:00,25.6,22.5,29.28,SSE,158,11.4,17.9,88,0.00,,,0.00,WUHU216HW,2013-01-30 19:35:00,
2013-01-30 13:40:00,25.0,21.7,29.29,SSE,158,10.5,16.1,87,0.00,,,0.00,WUHU216HW,2013-01-30 19:40:00,
2013-01-30 13:45:00,24.8,21.5,29.29,SSE,158,11.2,16.1,87,0.00,,,0.00,WUHU216HW,2013-01-30 19:45:00,
2013-01-30 13:50:00,24.3,21.2,29.29,SSE,158,10.5,19.0,88,0.00,,,0.00,WUHU216HW,2013-01-30 19:50:00,
2013-01-30 13:55:00,23.9,20.9,29.29,SSE,158,6.9,20.8,88,0.00,,,0.00,WUHU216HW,2013-01-30 19:55:00,
2013-01-30 14:00:00,23.8,20.4,29.29,SSE,158,13.9,20.8,87,0.00,,,0.00,WUHU216HW,2013-01-30 20:00:00,
2013-01-30 14:05:00,23.4,20.3,29.30,SSE,158,12.8,19.2,88,0.00,,,0.00,WUHU216HW,2013-01-30 20:05:00,
2013-01-30 14:10:00,22.9,19.3,29.30,SSE,158,11.4,19.2,86,0.00,,,0.00,WUHU216HW,2013-01-30 20:10:00,
2013-01-30 14:15:00,22.5,19.2,29.31,SSE,158,8.5,17.7,87,0.00,,,0.00,WUHU216HW,2013-01-30 20:15:00,
2013-01-30 14:20:00,22.3,19.0,29.30,SSE,158,16.8,17.7,87,0.00,,,0.00,WUHU216HW,2013-01-30 20:20:00,
2013-01-30 14:25:00,22.0,18.6,29.30,SSE,158,21.5,21.5,87,0.00,,,0.00,WUHU216HW,2013-01-30 20:25:00,
2013-01-30 14:30:00,21.6,18.8,29.31,SSE,158,12.3,21.5,89,0.00,,,0.00,WUHU216HW,2013-01-30 20:30:00,
2013-01-30 14:35:00,21.4,18.6,29.31,SSE,158,13.6,21.5,89,0.00,,,0.00,WUHU216HW,2013-01-30 20:35:00,
2013-01-30 14:40:00,21.2,18.5,29.31,SSE,158,9.6,19.2,89,0.00,,,0.00,WUHU216HW,2013-01-30 20:40:00,
2013-01-30 14:45:00,21.2,18.7,29.32,SSE,158,6.9,19.2,90,0.00,,,0.00,WUHU216HW,2013-01-30 20:45:00,
2013-01-30 14:50:00,21.6,19.1,29.32,SSE,158,5.8,18.1,90,0.00,,,0.00,WUHU216HW,2013-01-30 20:50:00,
2013-01-30 14:55:00,21.8,19.0,29.32,SSE,158,9.2,13.4,89,0.00,,,0.00,WUHU216HW,2013-01-30 20:55:00,
2013-01-30 15:00:00,22.0,18.9,29.32,SSE,158,10.7,13.4,88,0.00,,,0.00,WUHU216HW,2013-01-30 21:00:00,
2013-01-30 15:05:00,21.6,18.3,29.32,SSE,158,12.1,15.7,87,0.00,,,0.00,WUHU216HW,2013-01-30 21:05:00,
2013-01-30 15:10:00,21.2,17.9,29.32,SSE,158,10.5,15.7,87,0.00,,,0.00,WUHU216HW,2013-01-30 21:10:00,
2013-01-30 15:15:00,21.1,17.7,29.32,SSE,158,8.9,16.1,87,0.00,,,0.00,WUHU216HW,2013-01-30 21:15:00,
2013-01-30 15:20:00,20.9,17.6,29.32,SSE,158,7.6,16.1,87,0.00,,,0.00,WUHU216HW,2013-01-30 21:20:00,
2013-01-30 15:25:00,20.7,17.1,29.32,SSE,158,8.9,17.9,86,0.00,,,0.00,WUHU216HW,2013-01-30 21:25:00,
2013-01-30 15:30:00,20.5,16.9,29.32,SSE,158,13.0,17.9,86,0.00,,,0.00,WUHU216HW,2013-01-30 21:30:00,
2013-01-30 15:35:00,20.5,17.2,29.33,SSE,158,9.8,13.9,87,0.00,,,0.00,WUHU216HW,2013-01-30 21:35:00,
2013-01-30 15:40:00,20.3,17.0,29.33,SSE,158,12.8,13.2,87,0.00,,,0.00,WUHU216HW,2013-01-30 21:40:00,
2013-01-30 15:45:00,20.2,16.8,29.33,SSE,158,11.6,13.4,87,0.00,,,0.00,WUHU216HW,2013-01-30 21:45:00,
2013-01-30 15:50:00,20.2,16.8,29.33,SSE,158,13.0,15.2,87,0.00,,,0.00,WUHU216HW,2013-01-30 21:50:00,
2013-01-30 15:55:00,20.0,16.7,29.34,SSE,158,12.8,15.2,87,0.00,,,0.00,WUHU216HW,2013-01-30 21:55:00,
2013-01-30 16:00:00,19.8,16.5,29.33,SSE,158,9.8,16.3,87,0.00,,,0.00,WUHU216HW,2013-01-30 22:00:00,
2013-01-30 16:05:00,19.6,16.3,29.34,SSE,158,7.4,16.3,87,0.00,,,0.00,WUHU216HW,2013-01-30 22:05:00,
2013-01-30 16:10:00,19.8,16.5,29.34,SSE,158,10.1,12.8,87,0.00,,,0.00,WUHU216HW,2013-01-30 22:10:00,
2013-01-30 16:15:00,19.8,16.5,29.34,SSE,158,7.8,12.8,87,0.00,,,0.00,WUHU216HW,2013-01-30 22:15:00,
2013-01-30 16:20:00,19.8,16.5,29.35,SSE,158,10.3,13.4,87,0.00,,,0.00,WUHU216HW,2013-01-30 22:20:00,
2013-01-30 16:25:00,19.6,16.0,29.34,SSE,158,11.0,17.9,86,0.00,,,0.00,WUHU216HW,2013-01-30 22:25:00,
2013-01-30 16:30:00,19.1,15.5,29.34,SSE,158,10.3,17.9,86,0.00,,,0.00,WUHU216HW,2013-01-30 22:30:00,
2013-01-30 16:35:00,18.7,15.1,29.35,SSE,158,12.8,16.3,86,0.00,,,0.00,WUHU216HW,2013-01-30 22:35:00,
2013-01-30 16:40:00,18.4,15.0,29.35,SSE,158,7.6,15.4,87,0.00,,,0.00,WUHU216HW,2013-01-30 22:40:00,
2013-01-30 16:45:00,18.4,15.3,29.35,SSE,158,5.4,15.4,88,0.00,,,0.00,WUHU216HW,2013-01-30 22:45:00,
2013-01-30 16:50:00,18.4,15.0,29.35,SSE,158,13.4,14.3,87,0.00,,,0.00,WUHU216HW,2013-01-30 22:50:00,
2013-01-30 16:55:00,18.2,14.9,29.35,South,180,10.5,18.1,87,0.00,,,0.00,WUHU216HW,2013-01-30 22:55:00,
2013-01-30 17:00:00,17.8,14.5,29.36,South,180,11.9,18.1,87,0.00,,,0.00,WUHU216HW,2013-01-30 23:00:00,
2013-01-30 17:05:00,17.6,14.3,29.36,South,180,12.5,18.6,87,0.00,,,0.00,WUHU216HW,2013-01-30 23:05:00,
2013-01-30 17:10:00,17.5,14.1,29.36,SW,225,13.4,18.6,87,0.00,,,0.00,WUHU216HW,2013-01-30 23:10:00,
2013-01-30 17:15:00,17.3,14.0,29.36,SSE,158,6.5,15.0,87,0.00,,,0.00,WUHU216HW,2013-01-30 23:15:00,
2013-01-30 17:20:00,17.1,13.8,29.37,SSE,158,9.2,14.8,87,0.00,,,0.00,WUHU216HW,2013-01-30 23:20:00,
2013-01-30 17:25:00,16.9,13.6,29.37,SSE,158,8.7,11.4,87,0.00,,,0.00,WUHU216HW,2013-01-30 23:25:00,
2013-01-30 17:30:00,16.9,13.9,29.37,SSE,158,9.2,12.5,88,0.00,,,0.00,WUHU216HW,2013-01-30 23:30:00,
2013-01-30 17:35:00,16.9,13.6,29.37,SSE,158,8.9,12.5,87,0.00,,,0.00,WUHU216HW,2013-01-30 23:35:00,
2013-01-30 17:40:00,16.6,13.5,29.37,SSE,158,12.8,12.8,88,0.00,,,0.00,WUHU216HW,2013-01-30 23:40:00,
2013-01-30 17:45:00,16.4,13.1,29.37,SSE,158,9.8,12.8,87,0.00,,,0.00,WUHU216HW,2013-01-30 23:45:00,
2013-01-30 17:50:00,16.4,13.1,29.38,SSE,158,9.8,12.8,87,0.00,,,0.00,WUHU216HW,2013-01-30 23:50:00,
2013-01-30 17:55:00,16.2,12.9,29.38,SSE,158,9.6,11.6,87,0.00,,,0.00,WUHU216HW,2013-01-30 23:55:00,
2013-01-30 18:00:00,16.2,12.9,29.39,SSE,158,9.2,12.8,87,0.00,,,0.00,WUHU216HW,2013-01-31 00:00:00,
2013-01-30 18:05:00,16.0,12.8,29.39,SSE,158,6.7,14.3,87,0.00,,,0.00,WUHU216HW,2013-01-31 00:05:00,
2013-01-30 18:10:00,16.0,12.8,29.39,SSE,158,9.2,14.3,87,0.00,,,0.00,WUHU216HW,2013-01-31 00:10:00,
2013-01-30 18:15:00,16.0,12.8,29.39,SSE,158,9.4,13.0,87,0.00,,,0.00,WUHU216HW,2013-01-31 00:15:00,
2013-01-30 18:20:00,15.8,12.6,29.40,SSE,158,8.7,11.9,87,0.00,,,0.00,WUHU216HW,2013-01-31 00:20:00,
2013-01-30 18:25:00,15.8,12.6,29.40,South,180,14.3,14.3,87,0.00,,,0.00,WUHU216HW,2013-01-31 00:25:00,
2013-01-30 18:30:00,15.7,12.2,29.40,South,180,8.3,14.3,86,0.00,,,0.00,WUHU216HW,2013-01-31 00:30:00,
2013-01-30 18:35:00,15.5,12.0,29.40,South,180,10.3,14.3,86,0.00,,,0.00,WUHU216HW,2013-01-31 00:35:00,
2013-01-30 18:40:00,15.5,12.0,29.40,South,180,11.4,15.2,86,0.00,,,0.00,WUHU216HW,2013-01-31 00:40:00,
2013-01-30 18:45:00,15.5,12.0,29.40,SSW,203,7.6,15.2,86,0.00,,,0.00,WUHU216HW,2013-01-31 00:45:00,
2013-01-30 18:50:00,15.5,12.0,29.40,South,180,10.5,13.9,86,0.00,,,0.00,WUHU216HW,2013-01-31 00:50:00,
2013-01-30 18:55:00,15.3,11.8,29.40,South,180,11.9,14.5,86,0.00,,,0.00,WUHU216HW,2013-01-31 00:55:00,
2013-01-30 19:00:00,15.3,11.8,29.41,South,180,8.3,14.5,86,0.00,,,0.00,WUHU216HW,2013-01-31 01:00:00,
2013-01-30 19:05:00,15.3,11.5,29.41,ESE,113,9.8,14.3,85,0.00,,,0.00,WUHU216HW,2013-01-31 01:05:00,
2013-01-30 19:10:00,15.1,11.3,29.41,SW,225,9.8,14.3,85,0.00,,,0.00,WUHU216HW,2013-01-31 01:10:00,
2013-01-30 19:15:00,15.1,11.3,29.41,SE,135,8.3,12.8,85,0.00,,,0.00,WUHU216HW,2013-01-31 01:15:00,
2013-01-30 19:20:00,14.9,11.0,29.41,ESE,113,8.3,12.8,84,0.00,,,0.00,WUHU216HW,2013-01-31 01:20:00,
2013-01-30 19:25:00,14.9,11.2,29.42,SE,135,6.9,11.9,85,0.00,,,0.00,WUHU216HW,2013-01-31 01:25:00,
2013-01-30 19:30:00,14.8,10.8,29.42,NNW,338,9.8,10.1,84,0.00,,,0.00,WUHU216HW,2013-01-31 01:30:00,
2013-01-30 19:35:00,14.8,10.8,29.42,South,180,6.3,10.3,84,0.00,,,0.00,WUHU216HW,2013-01-31 01:35:00,
2013-01-30 19:40:00,14.8,10.8,29.42,WNW,293,11.4,11.4,84,0.00,,,0.00,WUHU216HW,2013-01-31 01:40:00,
2013-01-30 19:45:00,14.8,10.8,29.42,WNW,293,9.8,11.4,84,0.00,,,0.00,WUHU216HW,2013-01-31 01:45:00,
2013-01-30 19:50:00,14.6,10.6,29.42,WNW,293,5.4,10.1,84,0.00,,,0.00,WUHU216HW,2013-01-31 01:50:00,
2013-01-30 19:55:00,14.6,10.9,29.42,North,0,10.5,12.1,85,0.00,,,0.00,WUHU216HW,2013-01-31 01:55:00,
2013-01-30 20:00:00,14.4,10.7,29.43,SW,225,8.3,12.1,85,0.00,,,0.00,WUHU216HW,2013-01-31 02:00:00,
2013-01-30 20:05:00,14.4,10.7,29.43,South,180,4.9,13.0,85,0.00,,,0.00,WUHU216HW,2013-01-31 02:05:00,
2013-01-30 20:10:00,14.2,10.5,29.43,ESE,113,5.8,13.0,85,0.00,,,0.00,WUHU216HW,2013-01-31 02:10:00,
2013-01-30 20:15:00,14.2,10.5,29.43,SE,135,7.6,11.2,85,0.00,,,0.00,WUHU216HW,2013-01-31 02:15:00,
2013-01-30 20:20:00,14.0,10.4,29.43,SW,225,6.5,11.9,85,0.00,,,0.00,WUHU216HW,2013-01-31 02:20:00,
2013-01-30 20:25:00,14.0,10.4,29.43,SE,135,8.1,11.9,85,0.00,,,0.00,WUHU216HW,2013-01-31 02:25:00,
2013-01-30 20:30:00,14.0,10.6,29.43,North,0,7.6,10.3,86,0.00,,,0.00,WUHU216HW,2013-01-31 02:30:00,
2013-01-30 20:35:00,14.0,10.6,29.44,SW,225,8.3,10.3,86,0.00,,,0.00,WUHU216HW,2013-01-31 02:35:00,
2013-01-30 20:40:00,13.9,10.4,29.44,South,180,6.5,11.4,86,0.00,,,0.00,WUHU216HW,2013-01-31 02:40:00,
2013-01-30 20:45:00,13.9,10.4,29.44,South,180,5.4,11.4,86,0.00,,,0.00,WUHU216HW,2013-01-31 02:45:00,
2013-01-30 20:50:00,14.0,10.6,29.44,SE,135,6.0,10.3,86,0.00,,,0.00,WUHU216HW,2013-01-31 02:50:00,
2013-01-30 20:55:00,13.9,10.4,29.44,SE,135,6.5,8.7,86,0.00,,,0.00,WUHU216HW,2013-01-31 02:55:00,
2013-01-30 21:00:00,13.9,10.4,29.44,WNW,293,6.3,10.5,86,0.00,,,0.00,WUHU216HW,2013-01-31 03:00:00,
2013-01-30 21:05:00,13.7,10.0,29.44,South,180,7.6,10.5,85,0.00,,,0.00,WUHU216HW,2013-01-31 03:05:00,
2013-01-30 21:10:00,13.7,10.0,29.44,NW,315,7.6,10.5,85,0.00,,,0.00,WUHU216HW,2013-01-31 03:10:00,
2013-01-30 21:15:00,13.5,9.5,29.44,NE,45,4.0,12.5,84,0.00,,,0.00,WUHU216HW,2013-01-31 03:15:00,
2013-01-30 21:20:00,13.5,9.5,29.45,ESE,113,7.6,12.5,84,0.00,,,0.00,WUHU216HW,2013-01-31 03:20:00,
2013-01-30 21:25:00,13.3,9.4,29.45,South,180,7.2,8.5,84,0.00,,,0.00,WUHU216HW,2013-01-31 03:25:00,
2013-01-30 21:30:00,13.3,9.4,29.45,ESE,113,5.4,9.8,84,0.00,,,0.00,WUHU216HW,2013-01-31 03:30:00,
2013-01-30 21:35:00,13.3,9.4,29.45,SSE,158,9.6,9.8,84,0.00,,,0.00,WUHU216HW,2013-01-31 03:35:00,
2013-01-30 21:40:00,13.3,9.4,29.45,SSE,158,11.4,11.4,84,0.00,,,0.00,WUHU216HW,2013-01-31 03:40:00,
2013-01-30 21:45:00,13.3,9.4,29.45,SW,225,10.1,11.4,84,0.00,,,0.00,WUHU216HW,2013-01-31 03:45:00,
2013-01-30 21:50:00,13.3,9.4,29.45,SW,225,7.4,11.4,84,0.00,,,0.00,WUHU216HW,2013-01-31 03:50:00,
2013-01-30 21:55:00,13.5,9.5,29.45,NW,315,7.6,10.3,84,0.00,,,0.00,WUHU216HW,2013-01-31 03:55:00,
2013-01-30 22:00:00,13.3,9.4,29.45,South,180,6.5,9.2,84,0.00,,,0.00,WUHU216HW,2013-01-31 04:00:00,
2013-01-30 22:05:00,13.3,9.4,29.46,NE,45,6.0,9.2,84,0.00,,,0.00,WUHU216HW,2013-01-31 04:05:00,
2013-01-30 22:10:00,13.3,9.1,29.46,NE,45,5.4,12.1,83,0.00,,,0.00,WUHU216HW,2013-01-31 04:10:00,
2013-01-30 22:15:00,13.3,9.1,29.46,NE,45,6.9,12.1,83,0.00,,,0.00,WUHU216HW,2013-01-31 04:15:00,
2013-01-30 22:21:00,13.1,8.6,29.46,SSE,158,6.7,12.1,82,0.00,,,0.00,WUHU216HW,2013-01-31 04:21:00,
2013-01-30 22:26:00,13.0,8.5,29.46,NW,315,5.8,10.5,82,0.00,,,0.00,WUHU216HW,2013-01-31 04:26:00,
2013-01-30 22:31:00,12.8,8.3,29.46,WNW,293,4.0,10.5,82,0.00,,,0.00,WUHU216HW,2013-01-31 04:31:00,
2013-01-30 22:36:00,12.6,7.8,29.46,ESE,113,8.5,10.5,81,0.00,,,0.00,WUHU216HW,2013-01-31 04:36:00,
2013-01-30 22:41:00,12.6,7.8,29.47,WSW,248,6.7,10.5,81,0.00,,,0.00,WUHU216HW,2013-01-31 04:41:00,
2013-01-30 22:46:00,12.6,8.1,29.47,ESE,113,6.3,9.8,82,0.00,,,0.00,WUHU216HW,2013-01-31 04:46:00,
2013-01-30 22:51:00,12.6,8.1,29.47,WSW,248,6.9,9.4,82,0.00,,,0.00,WUHU216HW,2013-01-31 04:51:00,
2013-01-30 22:56:00,12.6,8.4,29.47,West,270,8.7,9.8,83,0.00,,,0.00,WUHU216HW,2013-01-31 04:56:00,
2013-01-30 23:00:00,12.6,8.4,29.47,ENE,68,5.1,9.8,83,0.00,,,0.00,WUHU216HW,2013-01-31 05:00:00,
2013-01-30 23:01:00,12.6,8.4,29.47,ENE,68,5.8,9.8,83,0.00,,,0.00,WUHU216HW,2013-01-31 05:01:00,
2013-01-30 23:03:00,12.6,8.4,29.47,ESE,113,8.7,9.8,83,0.00,,,0.00,WUHU216HW,2013-01-31 05:03:00,
2013-01-30 23:08:00,12.4,8.2,29.47,SSW,203,3.6,9.6,83,0.00,,,0.00,WUHU216HW,2013-01-31 05:08:00,
2013-01-30 23:13:00,12.4,8.5,29.47,ESE,113,6.3,8.9,84,0.00,,,0.00,WUHU216HW,2013-01-31 05:13:00,
2013-01-30 23:18:00,12.2,8.3,29.47,SSE,158,6.9,8.5,84,0.00,,,0.00,WUHU216HW,2013-01-31 05:18:00,
2013-01-30 23:23:00,12.1,8.1,29.48,North,0,4.0,8.5,84,0.00,,,0.00,WUHU216HW,2013-01-31 05:23:00,
2013-01-30 23:28:00,11.9,7.7,29.48,NE,45,5.6,8.5,83,0.00,,,0.00,WUHU216HW,2013-01-31 05:28:00,
2013-01-30 23:33:00,11.9,7.7,29.48,ESE,113,5.4,8.9,83,0.00,,,0.00,WUHU216HW,2013-01-31 05:33:00,
2013-01-30 23:38:00,11.7,7.5,29.48,ESE,113,8.5,8.9,83,0.00,,,0.00,WUHU216HW,2013-01-31 05:38:00,
2013-01-30 23:43:00,11.9,7.7,29.49,North,0,6.3,8.5,83,0.00,,,0.00,WUHU216HW,2013-01-31 05:43:00,
2013-01-30 23:48:00,11.9,7.7,29.49,NW,315,5.6,8.5,83,0.00,,,0.00,WUHU216HW,2013-01-31 05:48:00,
2013-01-30 23:53:00,11.9,7.7,29.49,NNE,23,5.4,8.3,83,0.00,,,0.00,WUHU216HW,2013-01-31 05:53:00,
2013-01-30 23:58:00,12.1,7.8,29.49,ESE,113,3.8,8.9,83,0.00,,,0.00,WUHU216HW,2013-01-31 05:58:00,